Time;durP1;ratioP1;P1;durP2;ratioP2;P2;SDS_P1;SDS_P2;PMS_P1;PMS_P2;Temp;Humidity;BMP_temperature;BMP_pressure;BME280_temperature;BME280_humidity;BME280_pressure;Samples;Min_cycle;Max_cycle;Signal;HPM_P1;HPM_P2
2022/07/29 00:00:10;;;;;;;0.00;0.00;;;;;;;;;;1745401;28;20198;-69
2022/07/29 00:01:02;;;;;;;0.00;0.00;;;;;;;;;;1744390;28;20245;-68
2022/07/29 00:01:54;;;;;;;0.00;0.00;;;;;;;;;;1743853;28;20227;-68
2022/07/29 00:02:46;;;;;;;0.00;0.00;;;;;;;;;;1744916;28;20533;-68
2022/07/29 00:03:39;;;;;;;0.00;0.00;;;;;;;;;;1750531;28;20774;-68
2022/07/29 00:04:30;;;;;;;0.00;0.00;;;;;;;;;;1746465;28;20217;-68
2022/07/29 00:05:22;;;;;;;0.00;0.00;;;;;;;;;;1744493;28;20203;-69
2022/07/29 00:06:14;;;;;;;0.00;0.00;;;;;;;;;;1746500;28;20202;-68
2022/07/29 00:07:06;;;;;;;0.00;0.00;;;;;;;;;;1742949;28;20238;-68
2022/07/29 00:07:57;;;;;;;0.00;0.00;;;;;;;;;;1746315;28;20213;-68
2022/07/29 00:08:49;;;;;;;0.00;0.00;;;;;;;;;;1749374;28;20217;-68
2022/07/29 00:09:41;;;;;;;0.00;0.00;;;;;;;;;;1746544;28;21360;-68
2022/07/29 00:10:33;;;;;;;0.00;0.00;;;;;;;;;;1744766;28;20233;-68
2022/07/29 00:11:24;;;;;;;0.00;0.00;;;;;;;;;;1746368;28;20214;-68
2022/07/29 00:12:16;;;;;;;0.00;0.00;;;;;;;;;;1744785;28;20275;-68
2022/07/29 00:13:07;;;;;;;0.00;0.00;;;;;;;;;;1746043;28;20205;-68
2022/07/29 00:14:00;;;;;;;0.00;0.00;;;;;;;;;;1747521;28;20221;-68
2022/07/29 00:14:51;;;;;;;0.00;0.00;;;;;;;;;;1745774;28;20233;-68
2022/07/29 00:15:43;;;;;;;0.00;0.00;;;;;;;;;;1748458;28;20240;-67
2022/07/29 00:16:34;;;;;;;0.00;0.00;;;;;;;;;;1745997;28;20229;-67
2022/07/29 00:17:27;;;;;;;0.00;0.00;;;;;;;;;;1746762;28;20713;-67
2022/07/29 00:18:19;;;;;;;0.00;0.00;;;;;;;;;;1746694;28;20251;-67
2022/07/29 00:19:11;;;;;;;0.00;0.00;;;;;;;;;;1743910;28;20671;-67
2022/07/29 00:20:06;;;;;;;0.00;0.00;;;;;;;;;;1745964;28;20220;-68
2022/07/29 00:20:58;;;;;;;0.00;0.00;;;;;;;;;;1743806;28;20501;-68
2022/07/29 00:21:50;;;;;;;0.00;0.00;;;;;;;;;;1744261;28;20293;-68
2022/07/29 00:22:42;;;;;;;0.00;0.00;;;;;;;;;;1744949;28;20241;-68
2022/07/29 00:23:33;;;;;;;0.00;0.00;;;;;;;;;;1744396;28;20210;-68
2022/07/29 00:24:25;;;;;;;0.00;0.00;;;;;;;;;;1747124;28;20264;-68
2022/07/29 00:25:16;;;;;;;0.00;0.00;;;;;;;;;;1744124;28;20203;-69
2022/07/29 00:26:09;;;;;;;0.00;0.00;;;;;;;;;;1744254;28;20198;-68
2022/07/29 00:27:00;;;;;;;0.00;0.00;;;;;;;;;;1747936;28;20209;-68
2022/07/29 00:27:52;;;;;;;0.00;0.00;;;;;;;;;;1746140;28;20241;-68
2022/07/29 00:28:43;;;;;;;0.00;0.00;;;;;;;;;;1749643;28;20208;-68
2022/07/29 00:29:36;;;;;;;0.00;0.00;;;;;;;;;;1746388;28;20207;-68
2022/07/29 00:30:27;;;;;;;0.10;0.10;;;;;;;;;;1746174;28;20201;-67
2022/07/29 00:31:19;;;;;;;0.00;0.00;;;;;;;;;;1745932;28;20194;-67
2022/07/29 00:32:10;;;;;;;0.00;0.00;;;;;;;;;;1742770;28;20641;-67
2022/07/29 00:33:02;;;;;;;0.00;0.00;;;;;;;;;;1746519;28;20301;-68
2022/07/29 00:33:55;;;;;;;0.00;0.00;;;;;;;;;;1746234;28;20572;-67
2022/07/29 00:35:56;;;;;;;0.00;0.00;;;;;;;;;;1742899;28;20300;-68
2022/07/29 00:36:49;;;;;;;0.00;0.00;;;;;;;;;;1744500;28;20218;-68
2022/07/29 00:37:40;;;;;;;0.00;0.00;;;;;;;;;;1746237;28;20210;-68
2022/07/29 00:38:32;;;;;;;0.00;0.00;;;;;;;;;;1745683;28;20206;-68
2022/07/29 00:39:23;;;;;;;0.00;0.00;;;;;;;;;;1746808;28;20210;-68
2022/07/29 00:40:15;;;;;;;0.00;0.00;;;;;;;;;;1743907;28;20289;-68
2022/07/29 00:41:07;;;;;;;0.00;0.00;;;;;;;;;;1746837;28;20198;-68
2022/07/29 00:41:59;;;;;;;0.00;0.00;;;;;;;;;;1742485;28;20207;-68
2022/07/29 00:42:51;;;;;;;0.00;0.00;;;;;;;;;;1744430;28;20556;-68
2022/07/29 00:43:43;;;;;;;0.00;0.00;;;;;;;;;;1745849;28;20248;-68
2022/07/29 00:44:37;;;;;;;0.00;0.00;;;;;;;;;;1746020;28;20210;-68
2022/07/29 00:45:29;;;;;;;0.00;0.00;;;;;;;;;;1741840;28;20763;-68
2022/07/29 00:46:21;;;;;;;0.00;0.00;;;;;;;;;;1746435;28;20207;-68
2022/07/29 00:47:13;;;;;;;0.00;0.00;;;;;;;;;;1746665;28;20203;-68
2022/07/29 00:48:06;;;;;;;0.00;0.00;;;;;;;;;;1746298;28;20207;-68
2022/07/29 00:49:00;;;;;;;0.00;0.00;;;;;;;;;;1744610;28;20257;-68
2022/07/29 00:49:51;;;;;;;0.00;0.00;;;;;;;;;;1747454;28;20206;-68
2022/07/29 00:50:43;;;;;;;0.00;0.00;;;;;;;;;;1743821;28;20230;-68
2022/07/29 00:51:36;;;;;;;0.00;0.00;;;;;;;;;;1747157;28;20217;-68
2022/07/29 00:52:28;;;;;;;0.00;0.00;;;;;;;;;;1743310;28;20308;-68
2022/07/29 00:53:21;;;;;;;0.00;0.00;;;;;;;;;;1746247;28;20356;-68
2022/07/29 00:54:12;;;;;;;0.00;0.00;;;;;;;;;;1748225;28;20210;-68
2022/07/29 00:55:05;;;;;;;0.00;0.00;;;;;;;;;;1747091;28;20226;-68
2022/07/29 00:55:57;;;;;;;0.00;0.00;;;;;;;;;;1745663;28;20230;-68
2022/07/29 00:56:48;;;;;;;0.00;0.00;;;;;;;;;;1748592;28;20259;-68
2022/07/29 00:57:41;;;;;;;0.00;0.00;;;;;;;;;;1748670;28;20206;-68
2022/07/29 00:58:32;;;;;;;0.00;0.00;;;;;;;;;;1746487;28;20210;-68
2022/07/29 00:59:25;;;;;;;0.00;0.00;;;;;;;;;;1747503;28;20202;-68
2022/07/29 01:00:17;;;;;;;0.00;0.00;;;;;;;;;;1742977;28;20206;-69
2022/07/29 01:01:09;;;;;;;0.00;0.00;;;;;;;;;;1747295;28;20616;-68
2022/07/29 01:02:00;;;;;;;0.00;0.00;;;;;;;;;;1744205;28;20207;-68
2022/07/29 01:02:53;;;;;;;0.00;0.00;;;;;;;;;;1747748;28;20207;-68
2022/07/29 01:03:44;;;;;;;0.00;0.00;;;;;;;;;;1747022;28;20581;-68
2022/07/29 01:04:38;;;;;;;0.00;0.00;;;;;;;;;;1747757;28;20640;-68
2022/07/29 01:05:30;;;;;;;0.00;0.00;;;;;;;;;;1742696;28;20242;-68
2022/07/29 01:06:22;;;;;;;0.00;0.00;;;;;;;;;;1747657;28;20206;-69
2022/07/29 01:07:13;;;;;;;0.00;0.00;;;;;;;;;;1750665;28;20558;-68
2022/07/29 01:08:06;;;;;;;0.00;0.00;;;;;;;;;;1746544;28;20210;-68
2022/07/29 01:08:58;;;;;;;0.10;0.10;;;;;;;;;;1745279;28;20586;-68
2022/07/29 01:09:51;;;;;;;0.00;0.00;;;;;;;;;;1746760;28;20210;-68
2022/07/29 01:10:44;;;;;;;0.00;0.00;;;;;;;;;;1745941;28;20950;-68
2022/07/29 01:11:36;;;;;;;0.00;0.00;;;;;;;;;;1747158;28;20214;-68
2022/07/29 01:12:31;;;;;;;0.00;0.00;;;;;;;;;;1745065;28;20245;-68
2022/07/29 01:13:22;;;;;;;0.00;0.00;;;;;;;;;;1746064;28;20364;-68
2022/07/29 01:14:15;;;;;;;0.00;0.00;;;;;;;;;;1745203;28;20236;-68
2022/07/29 01:15:07;;;;;;;0.00;0.00;;;;;;;;;;1746236;28;20226;-68
2022/07/29 01:16:02;;;;;;;0.00;0.00;;;;;;;;;;1745027;28;20233;-68
2022/07/29 01:16:56;;;;;;;0.00;0.00;;;;;;;;;;1749176;28;20214;-68
2022/07/29 01:17:52;;;;;;;0.10;0.10;;;;;;;;;;1747297;28;21227;-68
2022/07/29 01:18:46;;;;;;;0.00;0.00;;;;;;;;;;1745674;28;20203;-68
2022/07/29 01:19:49;;;;;;;0.00;0.00;;;;;;;;;;1747596;28;20606;-68
2022/07/29 01:20:52;;;;;;;0.00;0.00;;;;;;;;;;1743134;28;20241;-68
2022/07/29 01:21:52;;;;;;;0.00;0.00;;;;;;;;;;1747904;28;21099;-68
2022/07/29 01:22:54;;;;;;;0.00;0.00;;;;;;;;;;1747639;28;20537;-68
2022/07/29 01:24:04;;;;;;;0.08;0.08;;;;;;;;;;1750472;28;20202;-68
2022/07/29 01:25:03;;;;;;;0.00;0.00;;;;;;;;;;1747428;28;20264;-68
2022/07/29 01:26:10;;;;;;;0.00;0.00;;;;;;;;;;1741879;28;20667;-67
2022/07/29 01:27:08;;;;;;;0.00;0.00;;;;;;;;;;1741070;28;20210;-67
2022/07/29 01:28:18;;;;;;;0.00;0.00;;;;;;;;;;1746193;28;20206;-68
2022/07/29 01:29:13;;;;;;;0.00;0.00;;;;;;;;;;1747468;28;20643;-67
2022/07/29 01:30:06;;;;;;;0.00;0.00;;;;;;;;;;1746585;28;20211;-67
2022/07/29 01:30:59;;;;;;;0.00;0.00;;;;;;;;;;1744396;28;20224;-67
2022/07/29 01:31:55;;;;;;;0.00;0.00;;;;;;;;;;1746866;28;20221;-67
2022/07/29 01:32:48;;;;;;;0.00;0.00;;;;;;;;;;1748175;28;20214;-68
2022/07/29 01:33:51;;;;;;;0.00;0.00;;;;;;;;;;1744325;28;20280;-68
2022/07/29 01:34:46;;;;;;;0.00;0.00;;;;;;;;;;1747003;28;20210;-67
2022/07/29 01:35:38;;;;;;;0.00;0.00;;;;;;;;;;1745738;28;20522;-67
2022/07/29 01:36:31;;;;;;;0.00;0.00;;;;;;;;;;1746875;28;20209;-68
2022/07/29 01:37:26;;;;;;;0.00;0.00;;;;;;;;;;1748108;28;20202;-67
2022/07/29 01:38:20;;;;;;;0.00;0.00;;;;;;;;;;1746489;28;20206;-67
2022/07/29 01:39:13;;;;;;;0.00;0.00;;;;;;;;;;1748348;28;20603;-67
2022/07/29 01:40:07;;;;;;;0.00;0.00;;;;;;;;;;1746954;28;20202;-67
2022/07/29 01:41:03;;;;;;;0.00;0.00;;;;;;;;;;1744315;28;20234;-67
2022/07/29 01:41:57;;;;;;;0.00;0.00;;;;;;;;;;1747470;28;20806;-67
2022/07/29 01:42:51;;;;;;;0.00;0.00;;;;;;;;;;1747185;28;20202;-67
2022/07/29 01:43:44;;;;;;;0.00;0.00;;;;;;;;;;1746875;28;20238;-67
2022/07/29 01:44:41;;;;;;;0.00;0.00;;;;;;;;;;1747108;28;20206;-67
2022/07/29 01:45:37;;;;;;;0.00;0.00;;;;;;;;;;1742637;28;20234;-67
2022/07/29 01:46:33;;;;;;;0.00;0.00;;;;;;;;;;1747472;28;20205;-67
2022/07/29 01:47:27;;;;;;;0.10;0.10;;;;;;;;;;1747145;28;20963;-67
2022/07/29 01:48:21;;;;;;;0.00;0.00;;;;;;;;;;1746664;28;20285;-67
2022/07/29 01:49:14;;;;;;;0.00;0.00;;;;;;;;;;1745663;28;20210;-67
2022/07/29 01:50:08;;;;;;;0.00;0.00;;;;;;;;;;1746568;28;20301;-67
2022/07/29 01:51:03;;;;;;;0.00;0.00;;;;;;;;;;1745093;28;20275;-68
2022/07/29 01:51:59;;;;;;;0.00;0.00;;;;;;;;;;1746813;28;20206;-68
2022/07/29 01:52:53;;;;;;;0.00;0.00;;;;;;;;;;1743118;28;20202;-68
2022/07/29 01:53:47;;;;;;;0.00;0.00;;;;;;;;;;1746120;28;20202;-68
2022/07/29 01:54:42;;;;;;;0.00;0.00;;;;;;;;;;1743417;28;20206;-68
2022/07/29 01:55:36;;;;;;;0.00;0.00;;;;;;;;;;1742003;28;20764;-68
2022/07/29 01:56:30;;;;;;;0.00;0.00;;;;;;;;;;1747115;28;20570;-68
2022/07/29 01:57:26;;;;;;;0.00;0.00;;;;;;;;;;1750513;28;20202;-68
2022/07/29 01:58:18;;;;;;;0.00;0.00;;;;;;;;;;1742911;28;20235;-68
2022/07/29 01:59:11;;;;;;;0.00;0.00;;;;;;;;;;1737058;28;20210;-68
2022/07/29 02:00:05;;;;;;;0.00;0.00;;;;;;;;;;1741652;28;20268;-68
2022/07/29 02:00:59;;;;;;;0.00;0.00;;;;;;;;;;1738039;28;20695;-68
2022/07/29 02:01:51;;;;;;;0.00;0.00;;;;;;;;;;1738789;28;20257;-68
2022/07/29 02:02:44;;;;;;;0.00;0.00;;;;;;;;;;1741104;28;20203;-68
2022/07/29 02:03:37;;;;;;;0.00;0.00;;;;;;;;;;1738419;28;20211;-68
2022/07/29 02:04:30;;;;;;;0.00;0.00;;;;;;;;;;1740767;28;20195;-68
2022/07/29 02:05:23;;;;;;;0.00;0.00;;;;;;;;;;1736208;28;20199;-67
2022/07/29 02:06:17;;;;;;;0.00;0.00;;;;;;;;;;1740999;28;20199;-67
2022/07/29 02:07:10;;;;;;;0.00;0.00;;;;;;;;;;1739457;28;20277;-67
2022/07/29 02:08:02;;;;;;;0.00;0.00;;;;;;;;;;1741463;28;20221;-67
2022/07/29 02:08:55;;;;;;;0.00;0.00;;;;;;;;;;1737918;28;20261;-67
2022/07/29 02:09:48;;;;;;;0.00;0.00;;;;;;;;;;1742982;28;20548;-67
2022/07/29 02:10:40;;;;;;;0.00;0.00;;;;;;;;;;1737493;28;20249;-68
2022/07/29 02:11:34;;;;;;;0.00;0.00;;;;;;;;;;1740354;28;20210;-68
2022/07/29 02:12:26;;;;;;;0.00;0.00;;;;;;;;;;1737198;28;20207;-68
2022/07/29 02:13:19;;;;;;;0.00;0.00;;;;;;;;;;1739181;28;20308;-68
2022/07/29 02:14:11;;;;;;;0.00;0.00;;;;;;;;;;1741470;28;20272;-68
2022/07/29 02:15:09;;;;;;;0.00;0.00;;;;;;;;;;1740413;28;20203;-68
2022/07/29 02:16:01;;;;;;;0.00;0.00;;;;;;;;;;1739652;28;20700;-67
2022/07/29 02:16:54;;;;;;;0.00;0.00;;;;;;;;;;1746856;28;20904;-67
2022/07/29 02:17:49;;;;;;;0.00;0.00;;;;;;;;;;1748721;28;20210;-67
2022/07/29 02:18:41;;;;;;;0.00;0.00;;;;;;;;;;1744244;28;20211;-67
2022/07/29 02:19:34;;;;;;;0.00;0.00;;;;;;;;;;1751282;28;20635;-67
2022/07/29 02:20:26;;;;;;;0.00;0.00;;;;;;;;;;1742520;28;20213;-67
2022/07/29 02:21:21;;;;;;;0.00;0.00;;;;;;;;;;1740681;28;20195;-67
2022/07/29 02:22:12;;;;;;;0.00;0.00;;;;;;;;;;1736638;28;20278;-67
2022/07/29 02:23:05;;;;;;;0.00;0.00;;;;;;;;;;1740318;28;20548;-67
2022/07/29 02:23:58;;;;;;;0.00;0.00;;;;;;;;;;1739610;28;20305;-67
2022/07/29 02:24:52;;;;;;;0.00;0.00;;;;;;;;;;1740372;28;20204;-67
2022/07/29 02:25:43;;;;;;;0.00;0.00;;;;;;;;;;1738345;28;20292;-67
2022/07/29 02:26:36;;;;;;;0.00;0.00;;;;;;;;;;1738008;28;20203;-68
2022/07/29 02:27:27;;;;;;;0.00;0.00;;;;;;;;;;1740450;28;20268;-67
2022/07/29 02:28:20;;;;;;;0.00;0.00;;;;;;;;;;1739306;28;20206;-67
2022/07/29 02:29:13;;;;;;;0.00;0.00;;;;;;;;;;1740919;28;20637;-67
2022/07/29 02:30:06;;;;;;;0.00;0.00;;;;;;;;;;1740567;28;20218;-67
2022/07/29 02:31:00;;;;;;;0.00;0.00;;;;;;;;;;1738553;28;20276;-68
2022/07/29 02:31:53;;;;;;;0.00;0.00;;;;;;;;;;1739762;28;20619;-68
2022/07/29 02:32:45;;;;;;;0.00;0.00;;;;;;;;;;1740307;28;20273;-68
2022/07/29 02:33:38;;;;;;;0.00;0.00;;;;;;;;;;1740445;28;20616;-68
2022/07/29 02:34:30;;;;;;;0.00;0.00;;;;;;;;;;1740688;28;20264;-68
2022/07/29 02:35:23;;;;;;;0.00;0.00;;;;;;;;;;1737851;28;20577;-68
2022/07/29 02:36:17;;;;;;;0.00;0.00;;;;;;;;;;1740354;28;20236;-68
2022/07/29 02:37:10;;;;;;;0.00;0.00;;;;;;;;;;1739725;28;20246;-68
2022/07/29 02:39:13;;;;;;;0.00;0.00;;;;;;;;;;1740769;28;20233;-68
2022/07/29 02:40:07;;;;;;;0.00;0.00;;;;;;;;;;1740401;28;20248;-68
2022/07/29 02:40:59;;;;;;;0.00;0.00;;;;;;;;;;1729645;28;20286;-67
2022/07/29 02:41:53;;;;;;;0.00;0.00;;;;;;;;;;1732981;28;20204;-67
2022/07/29 02:42:44;;;;;;;0.00;0.00;;;;;;;;;;1739770;28;20209;-67
2022/07/29 02:43:37;;;;;;;0.00;0.00;;;;;;;;;;1741866;28;20265;-67
2022/07/29 02:44:28;;;;;;;0.00;0.00;;;;;;;;;;1741156;28;20276;-67
2022/07/29 02:45:20;;;;;;;0.00;0.00;;;;;;;;;;1735169;28;20212;-68
2022/07/29 02:46:15;;;;;;;0.00;0.00;;;;;;;;;;1740311;28;20207;-68
2022/07/29 02:47:12;;;;;;;0.00;0.00;;;;;;;;;;1736764;28;20208;-68
2022/07/29 02:48:05;;;;;;;0.00;0.00;;;;;;;;;;1739345;28;20417;-68
2022/07/29 02:49:01;;;;;;;0.00;0.00;;;;;;;;;;1740815;28;20207;-68
2022/07/29 02:49:54;;;;;;;0.00;0.00;;;;;;;;;;1740053;28;20553;-68
2022/07/29 02:50:51;;;;;;;0.00;0.00;;;;;;;;;;1737373;28;20242;-67
2022/07/29 02:51:44;;;;;;;0.00;0.00;;;;;;;;;;1739180;28;20210;-67
2022/07/29 02:52:39;;;;;;;0.00;0.00;;;;;;;;;;1734713;28;20208;-67
2022/07/29 02:53:33;;;;;;;0.00;0.00;;;;;;;;;;1739920;28;20348;-67
2022/07/29 02:54:29;;;;;;;0.10;0.10;;;;;;;;;;1741774;28;20704;-67
2022/07/29 02:55:25;;;;;;;0.00;0.00;;;;;;;;;;1737789;28;20668;-67
2022/07/29 02:56:18;;;;;;;0.00;0.00;;;;;;;;;;1740485;28;20609;-67
2022/07/29 02:57:12;;;;;;;0.00;0.00;;;;;;;;;;1740491;28;20217;-67
2022/07/29 02:58:05;;;;;;;0.00;0.00;;;;;;;;;;1742068;28;20218;-67
2022/07/29 02:58:57;;;;;;;0.00;0.00;;;;;;;;;;1746904;28;20542;-68
2022/07/29 02:59:51;;;;;;;0.00;0.00;;;;;;;;;;1746741;28;20206;-67
2022/07/29 03:00:43;;;;;;;0.00;0.00;;;;;;;;;;1740200;28;20296;-68
2022/07/29 03:01:40;;;;;;;0.00;0.00;;;;;;;;;;1742487;28;20612;-68
2022/07/29 03:02:33;;;;;;;0.00;0.00;;;;;;;;;;1741741;28;20664;-68
2022/07/29 03:03:26;;;;;;;0.00;0.00;;;;;;;;;;1739653;28;20218;-68
2022/07/29 03:04:18;;;;;;;0.00;0.00;;;;;;;;;;1740424;28;20304;-68
2022/07/29 03:05:12;;;;;;;0.00;0.00;;;;;;;;;;1737358;28;20334;-69
2022/07/29 03:06:04;;;;;;;0.00;0.00;;;;;;;;;;1733444;28;20677;-68
2022/07/29 03:07:00;;;;;;;0.00;0.00;;;;;;;;;;1739974;28;20206;-68
2022/07/29 03:07:55;;;;;;;0.00;0.00;;;;;;;;;;1739681;28;20321;-68
2022/07/29 03:08:47;;;;;;;0.00;0.00;;;;;;;;;;1740283;28;20222;-68
2022/07/29 03:09:39;;;;;;;0.00;0.00;;;;;;;;;;1739782;28;20227;-68
2022/07/29 03:10:32;;;;;;;0.00;0.00;;;;;;;;;;1741101;28;20691;-68
2022/07/29 03:11:24;;;;;;;0.00;0.00;;;;;;;;;;1740096;28;20203;-69
2022/07/29 03:12:16;;;;;;;0.00;0.00;;;;;;;;;;1738904;28;20621;-68
2022/07/29 03:13:08;;;;;;;0.00;0.00;;;;;;;;;;1739895;28;20198;-68
2022/07/29 03:14:00;;;;;;;0.00;0.00;;;;;;;;;;1740135;28;20199;-68
2022/07/29 03:14:53;;;;;;;0.00;0.00;;;;;;;;;;1737832;28;20271;-68
2022/07/29 03:15:45;;;;;;;0.00;0.00;;;;;;;;;;1743024;28;20299;-68
2022/07/29 03:16:38;;;;;;;0.00;0.00;;;;;;;;;;1745827;28;20271;-68
2022/07/29 03:17:31;;;;;;;0.00;0.00;;;;;;;;;;1747397;28;20297;-68
2022/07/29 03:18:22;;;;;;;0.00;0.00;;;;;;;;;;1745462;28;20530;-68
2022/07/29 03:19:15;;;;;;;0.00;0.00;;;;;;;;;;1747549;28;20647;-68
2022/07/29 03:20:07;;;;;;;0.00;0.00;;;;;;;;;;1747027;28;20640;-68
2022/07/29 03:20:59;;;;;;;0.00;0.00;;;;;;;;;;1737698;28;20280;-68
2022/07/29 03:21:51;;;;;;;0.00;0.00;;;;;;;;;;1739571;28;20221;-68
2022/07/29 03:22:46;;;;;;;0.00;0.00;;;;;;;;;;1739995;28;20651;-68
2022/07/29 03:23:37;;;;;;;0.00;0.00;;;;;;;;;;1739675;28;20225;-68
2022/07/29 03:24:31;;;;;;;0.00;0.00;;;;;;;;;;1739926;28;20620;-68
2022/07/29 03:25:22;;;;;;;0.00;0.00;;;;;;;;;;1738892;28;20211;-68
2022/07/29 03:26:15;;;;;;;0.00;0.00;;;;;;;;;;1740919;28;20179;-68
2022/07/29 03:27:06;;;;;;;0.00;0.00;;;;;;;;;;1739963;28;20207;-68
2022/07/29 03:27:58;;;;;;;0.00;0.00;;;;;;;;;;1739149;28;20298;-68
2022/07/29 03:28:49;;;;;;;0.05;0.05;;;;;;;;;;1739279;28;20265;-68
2022/07/29 03:29:41;;;;;;;0.00;0.00;;;;;;;;;;1739895;28;20787;-68
2022/07/29 03:30:33;;;;;;;0.00;0.00;;;;;;;;;;1741571;28;20234;-68
2022/07/29 03:31:25;;;;;;;0.00;0.00;;;;;;;;;;1746303;28;20210;-68
2022/07/29 03:32:18;;;;;;;0.00;0.00;;;;;;;;;;1745590;28;20215;-68
2022/07/29 03:33:11;;;;;;;0.00;0.00;;;;;;;;;;1746489;28;20202;-68
2022/07/29 03:34:02;;;;;;;0.00;0.00;;;;;;;;;;1747150;28;20217;-68
2022/07/29 03:34:54;;;;;;;0.00;0.00;;;;;;;;;;1746580;28;20237;-68
2022/07/29 03:35:45;;;;;;;0.00;0.00;;;;;;;;;;1745648;28;20314;-67
2022/07/29 03:36:37;;;;;;;0.00;0.00;;;;;;;;;;1746463;28;20271;-67
2022/07/29 03:37:30;;;;;;;0.00;0.00;;;;;;;;;;1745511;28;20915;-67
2022/07/29 03:38:25;;;;;;;0.00;0.00;;;;;;;;;;1746090;28;20636;-67
2022/07/29 03:39:17;;;;;;;0.00;0.00;;;;;;;;;;1745261;28;20207;-67
2022/07/29 03:40:11;;;;;;;0.00;0.00;;;;;;;;;;1744780;28;20244;-69
2022/07/29 03:41:05;;;;;;;0.00;0.00;;;;;;;;;;1738294;28;20295;-68
2022/07/29 03:41:58;;;;;;;0.00;0.00;;;;;;;;;;1737441;28;20298;-68
2022/07/29 03:42:50;;;;;;;0.00;0.00;;;;;;;;;;1741576;28;20199;-68
2022/07/29 03:43:43;;;;;;;0.00;0.00;;;;;;;;;;1737005;28;20596;-68
2022/07/29 03:44:35;;;;;;;0.00;0.00;;;;;;;;;;1735372;28;20584;-68
2022/07/29 03:45:28;;;;;;;0.00;0.00;;;;;;;;;;1734846;28;20685;-67
2022/07/29 03:46:20;;;;;;;0.00;0.00;;;;;;;;;;1740196;28;20274;-68
2022/07/29 03:47:14;;;;;;;0.00;0.00;;;;;;;;;;1742450;28;20198;-67
2022/07/29 03:48:09;;;;;;;0.00;0.00;;;;;;;;;;1738638;28;20207;-67
2022/07/29 03:49:02;;;;;;;0.00;0.00;;;;;;;;;;1743878;28;20285;-67
2022/07/29 03:49:55;;;;;;;0.00;0.00;;;;;;;;;;1739598;28;20268;-67
2022/07/29 03:50:47;;;;;;;0.00;0.00;;;;;;;;;;1743035;28;20234;-67
2022/07/29 03:51:39;;;;;;;0.00;0.00;;;;;;;;;;1746373;28;20224;-68
2022/07/29 03:52:32;;;;;;;0.00;0.00;;;;;;;;;;1742897;28;20529;-67
2022/07/29 03:53:23;;;;;;;0.00;0.00;;;;;;;;;;1746478;28;20620;-67
2022/07/29 03:54:16;;;;;;;0.00;0.00;;;;;;;;;;1747030;28;20201;-67
2022/07/29 03:55:07;;;;;;;0.00;0.00;;;;;;;;;;1745689;28;20270;-67
2022/07/29 03:56:01;;;;;;;0.00;0.00;;;;;;;;;;1722629;28;20688;-67
2022/07/29 03:56:53;;;;;;;0.00;0.00;;;;;;;;;;1730783;28;20215;-67
2022/07/29 03:57:46;;;;;;;0.00;0.00;;;;;;;;;;1736092;28;20564;-67
2022/07/29 03:58:38;;;;;;;0.00;0.00;;;;;;;;;;1734834;28;20544;-67
2022/07/29 03:59:32;;;;;;;0.00;0.00;;;;;;;;;;1739724;28;20242;-67
2022/07/29 04:00:24;;;;;;;0.00;0.00;;;;;;;;;;1739155;28;20195;-67
2022/07/29 04:01:17;;;;;;;0.00;0.00;;;;;;;;;;1746215;28;20261;-68
2022/07/29 04:02:11;;;;;;;0.00;0.00;;;;;;;;;;1745699;28;20217;-67
2022/07/29 04:03:05;;;;;;;0.00;0.00;;;;;;;;;;1746864;28;20535;-67
2022/07/29 04:03:58;;;;;;;0.00;0.00;;;;;;;;;;1746154;28;20206;-67
2022/07/29 04:04:50;;;;;;;0.00;0.00;;;;;;;;;;1745365;28;20328;-67
2022/07/29 04:05:41;;;;;;;0.00;0.00;;;;;;;;;;1728621;28;20303;-68
2022/07/29 04:06:39;;;;;;;0.00;0.00;;;;;;;;;;1738925;28;20207;-68
2022/07/29 04:07:30;;;;;;;0.00;0.00;;;;;;;;;;1736025;28;20200;-68
2022/07/29 04:08:23;;;;;;;0.00;0.00;;;;;;;;;;1739097;28;20272;-68
2022/07/29 04:09:14;;;;;;;0.00;0.00;;;;;;;;;;1741805;28;20261;-68
2022/07/29 04:10:07;;;;;;;0.00;0.00;;;;;;;;;;1740631;28;20233;-68
2022/07/29 04:10:58;;;;;;;0.00;0.00;;;;;;;;;;1737987;28;20353;-67
2022/07/29 04:11:50;;;;;;;0.00;0.00;;;;;;;;;;1737388;28;20207;-67
2022/07/29 04:12:42;;;;;;;0.00;0.00;;;;;;;;;;1737108;28;20214;-67
2022/07/29 04:13:34;;;;;;;0.00;0.00;;;;;;;;;;1739326;28;20265;-67
2022/07/29 04:14:25;;;;;;;0.00;0.00;;;;;;;;;;1739715;28;20210;-67
2022/07/29 04:15:18;;;;;;;0.00;0.00;;;;;;;;;;1734611;28;20203;-68
2022/07/29 04:16:09;;;;;;;0.00;0.00;;;;;;;;;;1739075;28;20254;-68
2022/07/29 04:17:02;;;;;;;0.00;0.00;;;;;;;;;;1738799;28;20604;-68
2022/07/29 04:17:53;;;;;;;0.00;0.00;;;;;;;;;;1738678;28;20218;-68
2022/07/29 04:18:45;;;;;;;0.00;0.00;;;;;;;;;;1739506;28;20206;-68
2022/07/29 04:19:38;;;;;;;0.00;0.00;;;;;;;;;;1739429;28;20214;-68
2022/07/29 04:20:30;;;;;;;0.00;0.00;;;;;;;;;;1735263;28;20792;-67
2022/07/29 04:21:22;;;;;;;0.00;0.00;;;;;;;;;;1739767;28;20310;-67
2022/07/29 04:22:14;;;;;;;0.00;0.00;;;;;;;;;;1739704;28;20868;-67
2022/07/29 04:23:05;;;;;;;0.00;0.00;;;;;;;;;;1741309;28;20276;-67
2022/07/29 04:23:57;;;;;;;0.00;0.00;;;;;;;;;;1741571;28;20625;-67
2022/07/29 04:24:49;;;;;;;0.00;0.00;;;;;;;;;;1741205;28;20230;-67
2022/07/29 04:25:41;;;;;;;0.10;0.10;;;;;;;;;;1739287;28;20754;-68
2022/07/29 04:26:32;;;;;;;0.00;0.00;;;;;;;;;;1737327;28;20207;-68
2022/07/29 04:27:25;;;;;;;0.00;0.00;;;;;;;;;;1738096;28;20256;-68
2022/07/29 04:28:16;;;;;;;0.00;0.00;;;;;;;;;;1740504;28;20275;-68
2022/07/29 04:29:08;;;;;;;0.00;0.00;;;;;;;;;;1741681;28;20261;-68
2022/07/29 04:29:59;;;;;;;0.00;0.00;;;;;;;;;;1740286;28;20214;-68
2022/07/29 04:30:51;;;;;;;0.00;0.00;;;;;;;;;;1737151;28;20242;-67
2022/07/29 04:31:43;;;;;;;0.00;0.00;;;;;;;;;;1740714;28;20276;-68
2022/07/29 04:32:35;;;;;;;0.00;0.00;;;;;;;;;;1740879;28;20360;-67
2022/07/29 04:33:26;;;;;;;0.00;0.00;;;;;;;;;;1739984;28;20260;-67
2022/07/29 04:34:18;;;;;;;0.00;0.00;;;;;;;;;;1739428;28;20625;-67
2022/07/29 04:35:11;;;;;;;0.00;0.00;;;;;;;;;;1739036;28;20203;-68
2022/07/29 04:36:04;;;;;;;0.00;0.00;;;;;;;;;;1740228;28;20231;-68
2022/07/29 04:36:56;;;;;;;0.00;0.00;;;;;;;;;;1740836;28;20258;-68
2022/07/29 04:37:48;;;;;;;0.00;0.00;;;;;;;;;;1741854;28;20584;-68
2022/07/29 04:38:39;;;;;;;0.00;0.00;;;;;;;;;;1742039;28;20755;-68
2022/07/29 04:39:31;;;;;;;0.00;0.00;;;;;;;;;;1742583;28;20273;-68
2022/07/29 04:40:23;;;;;;;0.00;0.00;;;;;;;;;;1736103;28;20230;-67
2022/07/29 04:41:15;;;;;;;0.00;0.00;;;;;;;;;;1737825;28;20195;-68
2022/07/29 04:42:06;;;;;;;0.00;0.00;;;;;;;;;;1740362;28;20271;-67
2022/07/29 04:42:58;;;;;;;0.00;0.00;;;;;;;;;;1741140;28;20195;-67
2022/07/29 04:43:49;;;;;;;0.00;0.00;;;;;;;;;;1737615;28;20587;-67
2022/07/29 04:44:42;;;;;;;0.00;0.00;;;;;;;;;;1741426;28;20625;-68
2022/07/29 04:45:33;;;;;;;0.00;0.00;;;;;;;;;;1738909;28;20293;-67
2022/07/29 04:46:25;;;;;;;0.00;0.00;;;;;;;;;;1741131;28;20227;-67
2022/07/29 04:47:16;;;;;;;0.00;0.00;;;;;;;;;;1738285;28;20319;-67
2022/07/29 04:48:09;;;;;;;0.00;0.00;;;;;;;;;;1739673;28;20757;-67
2022/07/29 04:49:00;;;;;;;0.00;0.00;;;;;;;;;;1740200;28;20240;-68
2022/07/29 04:49:52;;;;;;;0.00;0.00;;;;;;;;;;1740744;28;20722;-68
2022/07/29 04:50:45;;;;;;;0.00;0.00;;;;;;;;;;1739267;28;20231;-67
2022/07/29 04:51:37;;;;;;;0.00;0.00;;;;;;;;;;1740891;28;20593;-68
2022/07/29 04:52:28;;;;;;;0.00;0.00;;;;;;;;;;1739154;28;20218;-67
2022/07/29 04:53:21;;;;;;;0.00;0.00;;;;;;;;;;1740588;28;20230;-67
2022/07/29 04:54:12;;;;;;;0.00;0.00;;;;;;;;;;1738592;28;20207;-68
2022/07/29 04:55:07;;;;;;;0.00;0.00;;;;;;;;;;1740658;28;20257;-67
2022/07/29 04:55:59;;;;;;;0.00;0.00;;;;;;;;;;1739805;28;20549;-67
2022/07/29 04:56:51;;;;;;;0.00;0.00;;;;;;;;;;1739206;28;20651;-68
2022/07/29 04:57:42;;;;;;;0.00;0.00;;;;;;;;;;1739254;28;20731;-67
2022/07/29 04:58:35;;;;;;;0.00;0.00;;;;;;;;;;1739818;28;20211;-67
2022/07/29 04:59:26;;;;;;;0.00;0.00;;;;;;;;;;1741783;28;20207;-67
2022/07/29 05:00:19;;;;;;;0.00;0.00;;;;;;;;;;1736781;28;20568;-68
2022/07/29 05:01:10;;;;;;;0.00;0.00;;;;;;;;;;1739198;28;20211;-68
2022/07/29 05:02:02;;;;;;;0.00;0.00;;;;;;;;;;1740404;28;20590;-68
2022/07/29 05:02:53;;;;;;;0.00;0.00;;;;;;;;;;1742999;28;20236;-68
2022/07/29 05:03:46;;;;;;;0.00;0.00;;;;;;;;;;1738300;28;20204;-68
2022/07/29 05:04:37;;;;;;;0.00;0.00;;;;;;;;;;1741214;28;20291;-68
2022/07/29 05:05:29;;;;;;;0.00;0.00;;;;;;;;;;1736408;28;20302;-68
2022/07/29 05:06:22;;;;;;;0.00;0.00;;;;;;;;;;1741307;28;20245;-68
2022/07/29 05:07:15;;;;;;;0.00;0.00;;;;;;;;;;1741120;28;20206;-68
2022/07/29 05:08:06;;;;;;;0.00;0.00;;;;;;;;;;1737478;28;20207;-68
2022/07/29 05:08:58;;;;;;;0.00;0.00;;;;;;;;;;1738072;28;20665;-68
2022/07/29 05:09:49;;;;;;;0.00;0.00;;;;;;;;;;1739583;28;20607;-68
2022/07/29 05:10:41;;;;;;;0.00;0.00;;;;;;;;;;1739365;28;20846;-67
2022/07/29 05:11:33;;;;;;;0.00;0.00;;;;;;;;;;1740375;28;20278;-67
2022/07/29 05:12:25;;;;;;;0.00;0.00;;;;;;;;;;1738732;28;20207;-67
2022/07/29 05:13:16;;;;;;;0.00;0.00;;;;;;;;;;1740029;28;20207;-67
2022/07/29 05:14:08;;;;;;;0.00;0.00;;;;;;;;;;1737861;28;20241;-67
2022/07/29 05:14:59;;;;;;;0.00;0.00;;;;;;;;;;1739568;28;20211;-67
2022/07/29 05:15:52;;;;;;;0.00;0.00;;;;;;;;;;1739771;28;20238;-67
2022/07/29 05:16:43;;;;;;;0.00;0.00;;;;;;;;;;1739696;28;20242;-67
2022/07/29 05:17:37;;;;;;;0.00;0.00;;;;;;;;;;1738529;28;20222;-67
2022/07/29 05:18:30;;;;;;;0.00;0.00;;;;;;;;;;1739715;28;20276;-67
2022/07/29 05:19:22;;;;;;;0.00;0.00;;;;;;;;;;1740850;28;20242;-67